Time;durP1;ratioP1;P1;durP2;ratioP2;P2;SDS_P1;SDS_P2;PMS_P1;PMS_P2;Temp;Humidity;BMP_temperature;BMP_pressure;BME280_temperature;BME280_humidity;BME280_pressure;Samples;Min_cycle;Max_cycle;Signal;HPM_P1;HPM_P2
2023/01/11 00:00:18;;;;;;;0.68;0.68;;;;;;;17.71;36.77;99998.66;5009551;28;20029;-46
2023/01/11 00:02:45;;;;;;;0.95;0.93;;;;;;;17.72;36.86;99992.22;5008981;28;20725;-46
2023/01/11 00:05:10;;;;;;;0.60;0.60;;;;;;;17.73;36.61;100010.09;5008737;28;20531;-46
2023/01/11 00:07:36;;;;;;;1.10;0.80;;;;;;;17.70;36.60;100009.75;5008549;28;20034;-49
2023/01/11 00:10:03;;;;;;;0.98;0.70;;;;;;;17.75;36.70;100007.94;5009232;28;20030;-47
2023/01/11 00:12:30;;;;;;;1.05;0.80;;;;;;;17.72;36.67;100004.91;5008879;28;20105;-48
2023/01/11 00:14:55;;;;;;;0.60;0.50;;;;;;;17.74;36.80;100011.69;5009031;28;20596;-48
2023/01/11 00:17:21;;;;;;;0.80;0.60;;;;;;;17.78;36.59;100010.16;5007434;28;20074;-48
2023/01/11 00:19:47;;;;;;;0.50;0.50;;;;;;;17.73;36.74;100006.53;5008792;28;20034;-46
2023/01/11 00:22:12;;;;;;;0.70;0.70;;;;;;;17.78;36.66;100012.88;5008640;28;20029;-48
2023/01/11 00:24:38;;;;;;;1.10;0.90;;;;;;;17.75;36.66;100007.94;5008718;28;20042;-49
2023/01/11 00:27:04;;;;;;;0.80;0.70;;;;;;;17.78;36.72;100012.88;5008921;28;20034;-47
2023/01/11 00:29:29;;;;;;;0.82;0.60;;;;;;;17.78;36.68;100017.44;5008570;28;20113;-50
2023/01/11 00:31:55;;;;;;;1.08;0.60;;;;;;;17.77;36.61;100016.63;5008943;28;20034;-46
2023/01/11 00:34:20;;;;;;;1.17;0.80;;;;;;;17.77;36.68;100011.22;5008672;28;20026;-46
2023/01/11 00:36:46;;;;;;;0.98;0.88;;;;;;;17.75;36.82;100013.34;5008627;28;20148;-47
2023/01/11 00:39:12;;;;;;;1.45;0.70;;;;;;;17.80;36.82;100012.63;5008372;28;20030;-47
2023/01/11 00:49:56;;;;;;;0.50;0.50;;;;;;;17.84;36.75;100032.69;5019221;28;20092;-46
2023/01/11 00:52:22;;;;;;;0.60;0.60;;;;;;;17.80;36.96;100037.78;5008361;28;20030;-47
2023/01/11 00:54:47;;;;;;;0.80;0.70;;;;;;;17.83;36.86;100023.78;5008329;28;20029;-47
2023/01/11 00:57:13;;;;;;;0.45;0.45;;;;;;;17.77;36.78;100013.94;5008107;28;20556;-49
2023/01/11 00:59:39;;;;;;;0.77;0.68;;;;;;;17.86;36.93;100025.19;5007935;28;20060;-47
2023/01/11 01:02:05;;;;;;;0.80;0.63;;;;;;;17.86;36.78;100021.63;5007878;28;20029;-47
2023/01/11 01:04:30;;;;;;;0.77;0.50;;;;;;;17.87;36.91;100026.84;5007867;28;20030;-47
2023/01/11 01:06:56;;;;;;;0.82;0.65;;;;;;;17.88;36.80;100033.84;5006861;28;20144;-46
2023/01/11 01:09:22;;;;;;;0.73;0.60;;;;;;;17.79;36.79;100019.91;5023050;28;20569;-47
2023/01/11 01:11:47;;;;;;;0.80;0.50;;;;;;;17.91;36.88;100032.56;5007799;28;20520;-48
2023/01/11 01:14:25;;;;;;;1.25;0.68;;;;;;;17.93;37.10;100035.84;5007737;28;20025;-48
2023/01/11 01:17:01;;;;;;;1.00;0.70;;;;;;;17.93;36.74;100035.84;5006468;28;20481;-46
2023/01/11 01:19:28;;;;;;;0.60;0.60;;;;;;;17.90;36.84;100037.16;5007468;28;20022;-48
2023/01/11 01:21:55;;;;;;;0.57;0.57;;;;;;;17.92;36.86;100036.88;5007615;28;20080;-48
2023/01/11 01:24:20;;;;;;;1.27;0.50;;;;;;;17.94;36.73;100042.91;5007392;28;20169;-46
2023/01/11 01:26:46;;;;;;;1.80;0.70;;;;;;;17.97;36.58;100042.38;5007639;28;20030;-47
2023/01/11 01:29:13;;;;;;;0.50;0.50;;;;;;;17.97;36.79;100043.22;5007098;28;20018;-46
2023/01/11 01:31:39;;;;;;;0.80;0.60;;;;;;;17.97;36.63;100039.69;5007217;28;20055;-49
2023/01/11 01:34:05;;;;;;;0.45;0.45;;;;;;;17.95;36.74;100049.94;5007430;28;20030;-47
2023/01/11 01:36:31;;;;;;;0.40;0.40;;;;;;;17.97;36.69;100051.34;5022855;28;20387;-47
2023/01/11 01:39:00;;;;;;;0.82;0.60;;;;;;;17.99;36.67;100048.41;5006943;28;20030;-50
2023/01/11 01:41:26;;;;;;;0.70;0.70;;;;;;;18.00;36.53;100047.31;5005322;28;20045;-48
2023/01/11 01:43:59;;;;;;;0.80;0.63;;;;;;;17.99;36.77;100051.09;5007083;28;20046;-48
2023/01/11 01:46:29;;;;;;;0.75;0.52;;;;;;;17.99;36.80;100051.09;5007278;28;20033;-46
2023/01/11 01:49:15;;;;;;;1.63;0.60;;;;;;;18.01;36.71;100049.78;5007232;28;20045;-48
2023/01/11 01:51:46;;;;;;;1.13;0.70;;;;;;;18.02;36.82;100053.28;5005378;28;20053;-49
2023/01/11 01:54:15;;;;;;;1.00;0.60;;;;;;;18.02;36.90;100050.59;5007141;28;20026;-48
2023/01/11 01:56:46;;;;;;;0.93;0.60;;;;;;;18.04;36.88;100059.28;5005681;28;20021;-47
2023/01/11 01:59:13;;;;;;;0.85;0.50;;;;;;;18.06;36.67;100072.53;5021421;28;20496;-48
2023/01/11 02:01:48;;;;;;;1.30;0.68;;;;;;;18.05;36.66;100066.31;5006633;28;20061;-46
2023/01/11 02:04:24;;;;;;;0.50;0.40;;;;;;;18.08;36.72;100071.25;5006678;28;20072;-47
2023/01/11 02:06:52;;;;;;;2.50;0.70;;;;;;;18.05;36.81;100066.31;5020687;28;20157;-48
2023/01/11 02:09:18;;;;;;;0.77;0.50;;;;;;;18.08;36.74;100073.94;5006464;28;20370;-46
2023/01/11 02:11:43;;;;;;;0.65;0.50;;;;;;;18.08;36.74;100071.25;5007096;28;20041;-46
2023/01/11 02:14:13;;;;;;;0.77;0.45;;;;;;;18.08;36.80;100071.25;5022428;28;20022;-48
2023/01/11 02:16:39;;;;;;;1.35;0.60;;;;;;;18.09;36.80;100078.31;5006449;28;20092;-46
2023/01/11 02:19:05;;;;;;;0.40;0.40;;;;;;;18.11;36.80;100080.75;5009549;28;20038;-47
2023/01/11 02:21:55;;;;;;;0.73;0.50;;;;;;;18.10;36.83;100079.94;5034234;28;20034;-47
2023/01/11 02:24:44;;;;;;;0.60;0.57;;;;;;;18.11;36.87;100086.16;5033983;28;20400;-47
2023/01/11 02:27:56;;;;;;;0.68;0.60;;;;;;;18.13;36.71;100086.75;5035668;28;20021;-47
2023/01/11 02:30:28;;;;;;;1.10;0.70;;;;;;;18.08;36.81;100087.47;5022021;28;20042;-47
2023/01/11 02:32:59;;;;;;;0.82;0.60;;;;;;;18.11;36.93;100097.81;5043989;28;20036;-49
2023/01/11 02:35:34;;;;;;;0.45;0.40;;;;;;;18.15;36.70;100088.13;5044516;28;20014;-46
2023/01/11 02:38:29;;;;;;;0.50;0.47;;;;;;;18.17;36.84;100098.69;5016198;28;20022;-61
2023/01/11 02:41:06;;;;;;;;;;;;;;;18.16;36.87;100087.06;5003539;28;20096;-62
2023/01/11 02:46:43;;;;;;;0.80;0.50;;;;;;;18.16;36.91;100073.56;5017896;28;20053;-62
2023/01/11 02:49:20;;;;;;;0.70;0.43;;;;;;;18.16;36.89;100089.78;5021434;28;20125;-62
2023/01/11 02:51:58;;;;;;;0.65;0.63;;;;;;;18.17;37.00;100090.59;5021467;28;20036;-62
2023/01/11 02:54:24;;;;;;;0.70;0.40;;;;;;;18.15;36.79;100077.31;5005340;28;20469;-62
2023/01/11 02:56:55;;;;;;;0.82;0.57;;;;;;;18.15;36.97;100077.31;5006082;28;20030;-62
2023/01/11 02:59:22;;;;;;;0.40;0.38;;;;;;;18.19;36.81;100083.84;5021015;28;20117;-62
2023/01/11 03:01:50;;;;;;;0.40;0.40;;;;;;;18.19;36.64;100083.03;5005103;28;20095;-62
2023/01/11 03:04:23;;;;;;;0.68;0.50;;;;;;;18.16;36.82;100081.66;5004744;28;20038;-62
2023/01/11 03:06:48;;;;;;;0.52;0.40;;;;;;;18.19;36.86;100080.34;5006141;28;20026;-62
2023/01/11 03:09:14;;;;;;;1.25;0.50;;;;;;;18.20;36.79;100085.50;5006949;28;20124;-62
2023/01/11 03:12:55;;;;;;;0.43;0.40;;;;;;;18.21;36.88;100078.19;5009926;28;20041;-61
2023/01/11 03:15:06;;;;;;;0.45;0.45;;;;;;;18.19;36.80;100073.03;5006849;28;20129;-61
2023/01/11 03:17:32;;;;;;;0.95;0.40;;;;;;;18.24;36.86;100079.63;5008709;28;20477;-61
2023/01/11 03:20:20;;;;;;;0.88;0.40;;;;;;;18.15;36.69;100066.50;5010119;28;20053;-62
2023/01/11 03:22:49;;;;;;;0.65;0.40;;;;;;;18.25;36.94;100082.06;5006963;28;20477;-62
2023/01/11 03:25:38;;;;;;;0.40;0.40;;;;;;;18.27;36.57;100074.53;5009840;28;20034;-62
2023/01/11 03:28:26;;;;;;;0.77;0.60;;;;;;;18.31;36.53;100080.25;5010042;28;20033;-62
2023/01/11 03:31:14;;;;;;;1.05;0.60;;;;;;;18.26;36.80;100085.59;5009852;28;20025;-62
2023/01/11 03:33:48;;;;;;;0.90;0.50;;;;;;;18.31;36.51;100074.84;5022374;28;20460;-62
2023/01/11 03:36:26;;;;;;;;;;;;;;;18.33;36.54;100057.31;5023048;28;20030;-60
2023/01/11 03:39:16;;;;;;;1.17;0.50;;;;;;;18.35;36.65;100059.75;5009791;28;20440;-62
2023/01/11 03:41:42;;;;;;;0.60;0.52;;;;;;;18.34;36.75;100058.13;5007319;28;21080;-61
2023/01/11 03:44:08;;;;;;;1.30;0.50;;;;;;;18.33;36.65;100062.72;5008453;28;20053;-63
2023/01/11 03:46:40;;;;;;;0.70;0.55;;;;;;;18.33;36.39;100062.72;5008308;28;20120;-62
2023/01/11 03:49:11;;;;;;;0.70;0.52;;;;;;;18.37;36.63;100058.47;5024669;28;20036;-62
2023/01/11 03:51:41;;;;;;;0.40;0.40;;;;;;;18.36;36.62;100039.75;5008144;28;20088;-62
2023/01/11 03:54:07;;;;;;;1.20;0.60;;;;;;;18.36;36.74;100043.28;5009669;28;20663;-62
2023/01/11 03:57:03;;;;;;;1.25;0.60;;;;;;;18.36;36.70;100039.75;5008012;28;20064;-62
2023/01/11 03:59:28;;;;;;;0.90;0.50;;;;;;;18.38;36.61;100038.47;5007646;28;20041;-62
2023/01/11 04:01:54;;;;;;;0.40;0.40;;;;;;;18.31;36.73;100010.75;5008166;28;20034;-62
2023/01/11 04:04:20;;;;;;;0.70;0.55;;;;;;;18.41;36.61;100030.91;5007752;28;20343;-62
2023/01/11 04:06:46;;;;;;;0.52;0.50;;;;;;;18.39;36.41;100033.88;5008994;28;20038;-61
2023/01/11 04:09:11;;;;;;;0.60;0.60;;;;;;;18.42;36.66;100040.66;5008766;28;20034;-62
2023/01/11 04:11:37;;;;;;;1.10;0.52;;;;;;;18.42;36.48;100051.47;5008477;28;20026;-62
2023/01/11 04:14:03;;;;;;;0.90;0.50;;;;;;;18.38;36.65;100048.44;5008966;28;20128;-62
2023/01/11 04:16:28;;;;;;;0.77;0.50;;;;;;;18.41;36.70;100041.75;5008751;28;20028;-62
2023/01/11 04:18:54;;;;;;;0.50;0.50;;;;;;;18.39;36.81;100044.69;5008592;28;20631;-62
2023/01/11 04:21:20;;;;;;;0.60;0.50;;;;;;;18.42;36.51;100041.50;5007150;28;20034;-62
2023/01/11 04:23:45;;;;;;;1.38;0.50;;;;;;;18.42;36.44;100044.19;5008768;28;20172;-62
2023/01/11 04:26:11;;;;;;;0.60;0.60;;;;;;;18.42;36.62;100038.78;5008797;28;20034;-62
2023/01/11 04:28:37;;;;;;;0.77;0.40;;;;;;;18.40;36.69;100027.38;5024223;28;20106;-62
2023/01/11 04:31:02;;;;;;;0.50;0.30;;;;;;;18.43;36.61;100037.69;5006126;28;20377;-61
2023/01/11 04:33:28;;;;;;;1.90;0.57;;;;;;;18.43;36.58;100040.41;5008353;28;20381;-62
2023/01/11 04:35:53;;;;;;;0.70;0.40;;;;;;;18.47;36.43;100046.13;5008632;28;20488;-62
2023/01/11 04:38:22;;;;;;;0.63;0.40;;;;;;;18.46;36.50;100052.63;5008683;28;20041;-62
2023/01/11 04:40:48;;;;;;;1.00;0.50;;;;;;;18.46;36.66;100055.34;5023411;28;20457;-62
2023/01/11 04:43:14;;;;;;;1.13;0.45;;;;;;;18.50;36.59;100042.94;5007689;28;20034;-62
2023/01/11 04:45:39;;;;;;;1.08;0.55;;;;;;;18.48;36.53;100037.78;5007830;28;20148;-62
2023/01/11 04:48:05;;;;;;;0.60;0.45;;;;;;;18.46;36.43;100039.09;5007208;28;20072;-62
2023/01/11 04:50:31;;;;;;;0.90;0.60;;;;;;;18.47;36.59;100024.50;5007421;28;20079;-62
2023/01/11 04:52:58;;;;;;;1.88;0.55;;;;;;;18.41;36.58;100025.50;5006232;28;20136;-62
2023/01/11 04:55:23;;;;;;;1.45;0.75;;;;;;;18.50;36.70;100030.22;5007226;28;20030;-62
2023/01/11 04:57:49;;;;;;;0.55;0.40;;;;;;;18.48;36.46;100040.47;5007339;28;20033;-62
2023/01/11 05:00:15;;;;;;;2.65;0.60;;;;;;;18.51;36.56;100033.78;5007850;28;20108;-61
2023/01/11 05:02:40;;;;;;;1.00;0.52;;;;;;;18.50;36.54;100024.81;5007542;28;20018;-62
2023/01/11 05:05:06;;;;;;;1.05;0.45;;;;;;;18.49;36.73;100025.91;5007235;28;20036;-62
2023/01/11 05:07:32;;;;;;;1.15;0.50;;;;;;;18.48;36.46;100032.38;5007768;28;20033;-62
2023/01/11 05:09:58;;;;;;;0.50;0.50;;;;;;;18.48;36.36;100032.38;5007714;28;20495;-63
2023/01/11 05:12:23;;;;;;;2.00;0.60;;;;;;;18.48;36.56;100042.38;5008033;28;20040;-62
2023/01/11 05:14:49;;;;;;;0.73;0.50;;;;;;;18.49;36.64;100038.59;5008152;28;20030;-62
2023/01/11 05:17:15;;;;;;;1.15;0.40;;;;;;;18.52;36.74;100043.50;5007569;28;20117;-62
2023/01/11 05:19:40;;;;;;;0.52;0.40;;;;;;;18.52;36.72;100041.63;5007573;28;20108;-62
2023/01/11 05:22:07;;;;;;;0.65;0.50;;;;;;;18.52;36.58;100049.75;5006795;28;20034;-62
2023/01/11 05:24:32;;;;;;;0.90;0.43;;;;;;;18.54;36.58;100047.63;5007910;28;20089;-62
2023/01/11 05:26:58;;;;;;;0.60;0.50;;;;;;;18.55;36.81;100059.25;5007303;28;20370;-62
2023/01/11 05:29:23;;;;;;;1.13;0.50;;;;;;;18.58;36.58;100064.97;5007630;28;20326;-62
2023/01/11 05:31:49;;;;;;;1.40;0.57;;;;;;;18.53;36.67;100056.78;5007404;28;20112;-62
2023/01/11 05:34:15;;;;;;;1.90;0.52;;;;;;;18.55;36.64;100067.38;5007033;28;20496;-62
2023/01/11 05:36:41;;;;;;;0.63;0.50;;;;;;;18.58;36.28;100064.97;5007978;28;20500;-62
2023/01/11 05:39:07;;;;;;;0.70;0.40;;;;;;;18.58;36.68;100064.97;5007997;28;20033;-63
2023/01/11 05:41:32;;;;;;;0.55;0.38;;;;;;;18.58;36.67;100064.97;5007407;28;20030;-62
2023/01/11 05:46:42;;;;;;;0.88;0.40;;;;;;;18.50;36.81;100054.56;5008068;28;20076;-62
2023/01/11 05:49:08;;;;;;;0.55;0.40;;;;;;;18.58;36.47;100059.56;5006779;28;20524;-62
2023/01/11 05:51:34;;;;;;;0.57;0.40;;;;;;;18.56;36.52;100056.31;5007314;28;20051;-61
2023/01/11 05:54:01;;;;;;;0.52;0.40;;;;;;;18.62;36.58;100062.59;5004270;28;20437;-63
2023/01/11 05:56:27;;;;;;;0.55;0.40;;;;;;;18.58;36.59;100056.88;5005190;28;20057;-62
2023/01/11 05:58:53;;;;;;;0.82;0.43;;;;;;;18.61;36.56;100052.03;5005509;28;20030;-62
2023/01/11 06:01:19;;;;;;;0.68;0.50;;;;;;;18.61;36.32;100052.84;5004802;28;20092;-62
2023/01/11 06:03:45;;;;;;;0.60;0.50;;;;;;;18.60;36.37;100061.22;5005017;28;20017;-62
2023/01/11 06:06:10;;;;;;;0.40;0.40;;;;;;;18.62;36.42;100059.88;5003941;28;20531;-62
2023/01/11 06:08:36;;;;;;;0.43;0.40;;;;;;;18.62;36.61;100064.50;5007124;28;20021;-62
2023/01/11 06:11:02;;;;;;;0.52;0.30;;;;;;;18.63;36.46;100060.72;5022535;28;20044;-63
2023/01/11 06:13:28;;;;;;;0.30;0.30;;;;;;;18.65;36.58;100059.41;5007516;28;20040;-62
2023/01/11 06:15:57;;;;;;;0.52;0.45;;;;;;;18.64;36.41;100068.56;5007871;28;20058;-62
2023/01/11 06:18:22;;;;;;;0.40;0.40;;;;;;;18.63;36.63;100066.16;5006115;28;20412;-62
2023/01/11 06:20:52;;;;;;;0.55;0.43;;;;;;;18.62;36.64;100062.59;5007410;28;20034;-62
2023/01/11 06:23:18;;;;;;;0.88;0.50;;;;;;;18.62;36.42;100059.88;5006023;28;20022;-62
2023/01/11 06:25:43;;;;;;;0.60;0.55;;;;;;;18.65;36.50;100059.41;5007459;28;20057;-62
2023/01/11 06:28:09;;;;;;;0.38;0.38;;;;;;;18.62;36.54;100054.47;5022234;28;20022;-62
2023/01/11 06:30:35;;;;;;;0.32;0.30;;;;;;;18.63;36.65;100060.72;5007200;28;20540;-62
2023/01/11 06:33:04;;;;;;;0.88;0.40;;;;;;;18.67;36.72;100061.88;5005814;28;20032;-62
2023/01/11 06:35:31;;;;;;;0.55;0.55;;;;;;;18.66;36.80;100055.63;5006901;28;20053;-61
2023/01/11 06:37:57;;;;;;;0.45;0.40;;;;;;;18.65;36.71;100051.28;5007008;28;20164;-62
2023/01/11 06:40:22;;;;;;;0.32;0.30;;;;;;;18.72;36.54;100056.53;5007419;28;20113;-62
2023/01/11 06:42:48;;;;;;;0.40;0.40;;;;;;;18.68;36.62;100053.50;5007015;28;20050;-62
2023/01/11 06:45:14;;;;;;;0.32;0.30;;;;;;;18.68;36.39;100053.50;5007093;28;20036;-62
2023/01/11 06:47:39;;;;;;;0.28;0.28;;;;;;;18.71;36.65;100053.00;5005491;28;20022;-62
2023/01/11 06:50:06;;;;;;;0.85;0.50;;;;;;;18.68;36.23;100058.06;5007126;28;20105;-62
2023/01/11 06:52:31;;;;;;;0.50;0.50;;;;;;;18.58;36.38;100034.41;5007158;28;20112;-62
2023/01/11 06:54:57;;;;;;;0.50;0.50;;;;;;;18.69;36.84;100036.16;5007114;28;20396;-62
2023/01/11 06:57:22;;;;;;;0.30;0.30;;;;;;;18.72;36.46;100026.75;5006671;28;20457;-62
2023/01/11 06:59:48;;;;;;;0.45;0.35;;;;;;;18.71;36.29;100025.09;5006780;28;20034;-62
2023/01/11 07:02:14;;;;;;;0.63;0.40;;;;;;;18.74;36.42;100022.69;5007382;28;20117;-62
2023/01/11 07:04:39;;;;;;;0.63;0.50;;;;;;;18.72;36.45;100032.16;5007001;28;20036;-63
2023/01/11 07:07:05;;;;;;;0.40;0.40;;;;;;;18.75;36.51;100021.66;5006963;28;20485;-62
2023/01/11 07:09:30;;;;;;;0.43;0.30;;;;;;;18.74;36.21;100024.59;5006355;28;20042;-62
2023/01/11 07:11:56;;;;;;;0.40;0.40;;;;;;;18.73;36.33;100028.38;5005691;28;20579;-62
2023/01/11 07:14:23;;;;;;;0.30;0.30;;;;;;;18.76;36.54;100027.88;5006784;28;20534;-62
2023/01/11 07:16:49;;;;;;;0.30;0.30;;;;;;;18.76;36.53;100027.88;5007122;28;20163;-62
2023/01/11 07:19:16;;;;;;;0.50;0.50;;;;;;;18.75;36.63;100026.25;5003826;28;20018;-62
2023/01/11 07:21:42;;;;;;;0.35;0.30;;;;;;;18.77;36.60;100038.44;5006276;28;20026;-62
2023/01/11 07:24:08;;;;;;;0.55;0.40;;;;;;;18.76;36.44;100033.28;5006744;28;20040;-62
2023/01/11 07:26:39;;;;;;;0.30;0.30;;;;;;;18.72;36.39;100029.44;5006967;28;20117;-62
2023/01/11 07:29:06;;;;;;;0.30;0.30;;;;;;;18.77;36.39;100037.63;5007014;28;20038;-62
2023/01/11 07:31:31;;;;;;;0.30;0.30;;;;;;;18.78;36.53;100041.97;5006536;28;20026;-62
2023/01/11 07:33:57;;;;;;;0.30;0.30;;;;;;;18.80;36.54;100042.56;5006685;28;20060;-62
2023/01/11 07:36:22;;;;;;;0.63;0.40;;;;;;;18.72;36.63;100041.09;5006739;28;20120;-62
2023/01/11 07:38:48;;;;;;;0.30;0.30;;;;;;;18.80;36.54;100047.97;5007068;28;20140;-62
2023/01/11 07:43:58;;;;;;;0.85;0.40;;;;;;;18.78;36.60;100039.25;5006519;28;20116;-62
2023/01/11 07:46:23;;;;;;;0.30;0.30;;;;;;;18.79;36.50;100038.19;5021661;28;20495;-62
2023/01/11 07:48:49;;;;;;;0.30;0.30;;;;;;;18.82;36.50;100043.16;5006426;28;20022;-62
2023/01/11 07:51:19;;;;;;;0.32;0.30;;;;;;;18.81;36.62;100038.75;5006546;28;20042;-62
2023/01/11 07:53:45;;;;;;;0.68;0.30;;;;;;;18.79;36.69;100035.50;5021249;28;20172;-62
2023/01/11 07:56:11;;;;;;;0.47;0.32;;;;;;;18.78;36.42;100039.25;5006696;28;20034;-62
2023/01/11 07:58:36;;;;;;;0.30;0.30;;;;;;;18.82;36.67;100047.72;5010047;28;20684;-62
2023/01/11 08:01:02;;;;;;;0.40;0.40;;;;;;;18.83;36.61;100055.59;5009732;28;20033;-63
2023/01/11 08:03:28;;;;;;;0.30;0.30;;;;;;;18.75;36.45;100037.06;5008364;28;20144;-62
2023/01/11 08:05:53;;;;;;;0.38;0.38;;;;;;;18.83;36.45;100058.31;5009907;28;20113;-62
2023/01/11 08:08:19;;;;;;;0.38;0.38;;;;;;;18.82;36.29;100048.56;5010267;28;20076;-62
2023/01/11 08:10:45;;;;;;;0.30;0.30;;;;;;;18.87;36.60;100054.06;5010039;28;20025;-63
2023/01/11 08:15:58;;;;;;;0.47;0.40;;;;;;;18.87;36.61;100050.53;5007719;28;20089;-62
2023/01/11 08:18:23;;;;;;;0.28;0.28;;;;;;;18.87;36.36;100054.06;5010101;28;20554;-63
2023/01/11 08:20:52;;;;;;;0.40;0.40;;;;;;;18.77;36.41;100029.53;5009630;28;20030;-62
2023/01/11 08:23:18;;;;;;;0.40;0.40;;;;;;;18.85;36.42;100042.66;5009087;28;20033;-63
2023/01/11 08:25:43;;;;;;;0.45;0.35;;;;;;;18.87;36.54;100048.63;5009500;28;20034;-62
2023/01/11 08:28:09;;;;;;;0.40;0.40;;;;;;;18.87;36.48;100045.94;5009335;28;20018;-63
2023/01/11 08:30:35;;;;;;;0.30;0.30;;;;;;;18.88;36.42;100046.75;5009153;28;20014;-62
2023/01/11 08:33:01;;;;;;;0.60;0.43;;;;;;;18.88;36.47;100047.53;5024218;28;20464;-63
2023/01/11 08:35:26;;;;;;;0.40;0.40;;;;;;;18.88;36.55;100042.13;5007433;28;20034;-63
2023/01/11 08:37:52;;;;;;;0.30;0.30;;;;;;;18.88;36.52;100035.91;5024392;28;20214;-63
2023/01/11 08:40:18;;;;;;;0.43;0.35;;;;;;;18.88;36.59;100039.44;5009056;28;20078;-63
2023/01/11 08:42:44;;;;;;;1.30;0.50;;;;;;;18.90;36.75;100040.03;5008271;28;20034;-62
2023/01/11 08:45:09;;;;;;;0.40;0.40;;;;;;;18.89;36.43;100041.06;5009068;28;20088;-63
2023/01/11 08:47:35;;;;;;;0.65;0.30;;;;;;;18.93;36.42;100030.56;5008618;28;20095;-62
2023/01/11 08:50:01;;;;;;;0.22;0.22;;;;;;;18.94;36.51;100041.13;5008819;28;20573;-64
2023/01/11 08:52:26;;;;;;;0.35;0.35;;;;;;;18.90;36.33;100023.78;5008629;28;20493;-63
2023/01/11 08:54:52;;;;;;;0.38;0.30;;;;;;;18.95;36.49;100033.81;5009030;28;20036;-63
2023/01/11 08:57:18;;;;;;;0.40;0.40;;;;;;;18.94;36.36;100034.91;5008773;28;20044;-62
2023/01/11 08:59:43;;;;;;;0.35;0.35;;;;;;;18.94;36.54;100035.72;5008434;28;20479;-63
2023/01/11 09:02:10;;;;;;;0.70;0.40;;;;;;;18.93;36.47;100027.84;5008553;28;20167;-63
2023/01/11 09:04:36;;;;;;;0.93;0.40;;;;;;;18.92;36.47;100032.47;5023652;28;20030;-63
2023/01/11 09:07:02;;;;;;;0.30;0.30;;;;;;;18.83;36.56;100022.31;5008013;28;20037;-63
2023/01/11 09:09:28;;;;;;;0.40;0.30;;;;;;;18.93;36.34;100034.06;5008292;28;20026;-63
2023/01/11 09:11:55;;;;;;;0.57;0.40;;;;;;;18.91;36.69;100036.22;5006692;28;20041;-63
2023/01/11 09:14:22;;;;;;;0.28;0.28;;;;;;;18.94;36.42;100045.75;5008356;28;20026;-63
2023/01/11 09:16:47;;;;;;;0.38;0.38;;;;;;;18.95;36.45;100031.97;5008764;28;20467;-63
2023/01/11 09:19:13;;;;;;;0.68;0.40;;;;;;;18.97;36.38;100034.38;5008183;28;20029;-63
2023/01/11 09:21:39;;;;;;;0.30;0.30;;;;;;;18.98;36.30;100040.66;5008017;28;20113;-63
2023/01/11 09:24:05;;;;;;;0.40;0.40;;;;;;;18.94;36.30;100029.50;5008915;28;20030;-63
2023/01/11 09:26:31;;;;;;;1.70;0.73;;;;;;;18.86;36.37;100011.78;5008719;28;20021;-63
2023/01/11 09:28:57;;;;;;;0.52;0.40;;;;;;;18.99;36.19;100031.44;5006883;28;20511;-63
2023/01/11 09:31:22;;;;;;;0.30;0.30;;;;;;;18.98;36.39;100030.63;5008332;28;20113;-63
2023/01/11 09:33:48;;;;;;;0.50;0.50;;;;;;;18.97;36.34;100028.16;5008120;28;20147;-63
2023/01/11 09:36:16;;;;;;;0.52;0.40;;;;;;;18.97;36.45;100004.59;5008450;28;20393;-63
2023/01/11 09:38:42;;;;;;;0.30;0.30;;;;;;;19.00;36.54;100006.00;5007913;28;20048;-63
2023/01/11 09:41:33;;;;;;;1.08;0.40;;;;;;;18.98;36.68;100019.78;5023409;28;20046;-62
2023/01/11 09:44:15;;;;;;;0.30;0.30;;;;;;;18.99;36.61;99998.94;5007032;28;20061;-63
2023/01/11 09:46:42;;;;;;;0.50;0.50;;;;;;;18.99;36.33;100009.78;5008135;28;20034;-62
2023/01/11 09:49:15;;;;;;;0.85;0.40;;;;;;;19.01;36.32;100013.06;5007993;28;20448;-62
2023/01/11 09:51:42;;;;;;;0.88;0.50;;;;;;;19.01;36.47;100013.06;5007494;28;20623;-64
2023/01/11 09:54:09;;;;;;;0.32;0.32;;;;;;;19.05;36.34;100015.00;5008270;28;20060;-62
2023/01/11 09:56:46;;;;;;;0.50;0.40;;;;;;;19.04;36.36;100015.25;5023221;28;20534;-62
2023/01/11 09:59:28;;;;;;;0.40;0.40;;;;;;;19.07;36.52;100007.44;5006280;28;20038;-62
2023/01/11 10:01:54;;;;;;;0.40;0.35;;;;;;;19.02;36.61;100009.28;5007553;28;20026;-62
2023/01/11 10:04:57;;;;;;;1.08;0.50;;;;;;;19.04;36.39;100007.13;5007671;28;20030;-63
2023/01/11 10:07:48;;;;;;;0.55;0.50;;;;;;;18.94;36.38;99989.69;5006182;28;20029;-63
2023/01/11 10:10:33;;;;;;;0.40;0.30;;;;;;;19.04;36.53;100005.25;5007681;28;20589;-62
2023/01/11 10:13:31;;;;;;;0.40;0.40;;;;;;;19.04;36.54;100009.81;5022100;28;20026;-63
2023/01/11 10:16:23;;;;;;;0.68;0.40;;;;;;;19.02;36.25;100001.16;5006187;28;20038;-63
2023/01/11 10:19:05;;;;;;;0.45;0.40;;;;;;;19.06;36.32;100011.22;5005458;28;20029;-63
2023/01/11 10:21:54;;;;;;;0.85;0.47;;;;;;;19.09;36.51;100001.75;5007306;28;20141;-62
2023/01/11 10:24:34;;;;;;;0.90;0.50;;;;;;;19.04;36.46;99990.88;5006848;28;20057;-63
2023/01/11 10:27:06;;;;;;;0.90;0.45;;;;;;;19.10;36.36;99996.09;5006148;28;20109;-63
2023/01/11 10:35:40;;;;;;;0.63;0.50;;;;;;;19.11;36.45;99986.09;4996498;28;20441;-62
2023/01/11 10:38:37;;;;;;;0.88;0.60;;;;;;;19.11;36.56;99975.28;5018988;28;20026;-63
2023/01/11 10:41:19;;;;;;;0.40;0.40;;;;;;;19.08;36.57;99968.47;5005975;28;20071;-62
2023/01/11 10:43:48;;;;;;;0.30;0.30;;;;;;;19.14;36.29;99967.44;5003997;28;20528;-62
2023/01/11 10:46:20;;;;;;;1.65;0.40;;;;;;;19.09;36.26;99967.41;5022463;28;20061;-63
2023/01/11 10:48:46;;;;;;;0.40;0.40;;;;;;;19.13;36.48;99965.00;5005695;28;20562;-63
2023/01/11 10:51:31;;;;;;;0.47;0.40;;;;;;;19.12;36.23;99972.28;5022285;28;20034;-63
2023/01/11 10:54:12;;;;;;;1.38;0.40;;;;;;;19.11;36.52;99969.84;5022051;28;20065;-63
2023/01/11 10:57:10;;;;;;;0.98;0.50;;;;;;;19.09;36.45;99967.41;5021194;28;20266;-63
2023/01/11 10:59:45;;;;;;;0.80;0.50;;;;;;;19.14;36.27;99961.19;5006634;28;20160;-63
2023/01/11 11:02:47;;;;;;;0.50;0.50;;;;;;;19.11;36.33;99959.81;5006661;28;20038;-63
2023/01/11 11:05:34;;;;;;;1.05;0.50;;;;;;;19.14;36.33;99955.78;5005667;28;20029;-63
2023/01/11 11:08:06;;;;;;;0.47;0.40;;;;;;;19.12;36.49;99944.38;5003818;28;20030;-63
2023/01/11 11:10:44;;;;;;;0.47;0.47;;;;;;;19.13;36.48;99946.84;5006904;28;20025;-64
2023/01/11 11:13:47;;;;;;;1.35;0.50;;;;;;;19.14;36.65;99944.94;5006969;28;20029;-63
2023/01/11 11:16:21;;;;;;;0.35;0.35;;;;;;;19.14;36.40;99944.94;5005390;28;20033;-63
2023/01/11 11:18:57;;;;;;;0.43;0.40;;;;;;;19.16;36.59;99936.56;5006873;28;20169;-63
2023/01/11 11:21:33;;;;;;;0.68;0.47;;;;;;;19.14;36.46;99944.94;5005128;28;20105;-63
2023/01/11 11:24:20;;;;;;;0.95;0.50;;;;;;;19.15;36.40;99933.03;5020847;28;20061;-63
2023/01/11 11:26:51;;;;;;;0.75;0.40;;;;;;;19.15;36.26;99933.03;5006772;28;20091;-63
2023/01/11 11:29:21;;;;;;;0.45;0.43;;;;;;;19.14;36.44;99931.41;5005687;28;20029;-63
2023/01/11 11:31:47;;;;;;;0.47;0.47;;;;;;;19.14;36.32;99936.81;5009596;28;20034;-64
2023/01/11 11:34:17;;;;;;;0.45;0.45;;;;;;;19.09;36.50;99917.81;5025550;28;20134;-63
2023/01/11 11:36:44;;;;;;;0.47;0.40;;;;;;;19.15;36.17;99922.22;5010689;28;20029;-63
2023/01/11 11:39:21;;;;;;;0.50;0.50;;;;;;;19.12;36.29;99922.72;5009159;28;20032;-63
2023/01/11 11:41:51;;;;;;;0.60;0.60;;;;;;;19.17;36.50;99920.06;5008427;28;20048;-63
2023/01/11 11:44:24;;;;;;;1.38;0.50;;;;;;;19.14;36.33;99907.03;5010548;28;20478;-63
2023/01/11 11:46:57;;;;;;;0.40;0.40;;;;;;;19.12;36.35;99906.47;5009086;28;20057;-63
2023/01/11 11:49:23;;;;;;;1.23;0.60;;;;;;;19.14;36.16;99902.44;5009333;28;20034;-63
2023/01/11 11:51:48;;;;;;;0.55;0.47;;;;;;;19.13;36.08;99900.00;5010231;28;20072;-63
2023/01/11 11:54:29;;;;;;;0.55;0.55;;;;;;;19.17;36.44;99898.38;5008819;28;20149;-63
2023/01/11 11:56:55;;;;;;;0.70;0.70;;;;;;;19.17;36.39;99894.88;5010406;28;20500;-63
2023/01/11 11:59:22;;;;;;;0.68;0.50;;;;;;;19.16;36.30;99896.75;5024792;28;20517;-63
2023/01/11 12:01:54;;;;;;;0.50;0.47;;;;;;;19.12;36.17;99873.97;5024350;28;20022;-63
2023/01/11 12:04:28;;;;;;;0.50;0.43;;;;;;;19.19;36.59;99882.69;5008490;28;20026;-63